sensor_id;sensor_type;location;lat;lon;timestamp;P1;durP1;ratioP1;P2;durP2;ratioP2
47259;SDS011;32999;52.412;4.890;2022-10-16T00:00:52;4.35;;;1.10;;
47259;SDS011;32999;52.412;4.890;2022-10-16T00:05:54;6.25;;;1.27;;
47259;SDS011;32999;52.412;4.890;2022-10-16T00:11:01;4.80;;;1.65;;
47259;SDS011;32999;52.412;4.890;2022-10-16T00:16:05;4.77;;;1.20;;
47259;SDS011;32999;52.412;4.890;2022-10-16T00:21:09;3.58;;;1.25;;
47259;SDS011;32999;52.412;4.890;2022-10-16T00:26:13;4.33;;;1.17;;
47259;SDS011;32999;52.412;4.890;2022-10-16T00:31:19;5.53;;;1.20;;
47259;SDS011;32999;52.412;4.890;2022-10-16T00:36:22;4.65;;;1.20;;
47259;SDS011;32999;52.412;4.890;2022-10-16T00:41:26;5.43;;;1.70;;
47259;SDS011;32999;52.412;4.890;2022-10-16T00:46:31;3.40;;;1.30;;
47259;SDS011;32999;52.412;4.890;2022-10-16T00:51:37;6.60;;;1.27;;
47259;SDS011;32999;52.412;4.890;2022-10-16T00:56:41;4.82;;;1.42;;
47259;SDS011;32999;52.412;4.890;2022-10-16T01:01:47;4.30;;;1.55;;
47259;SDS011;32999;52.412;4.890;2022-10-16T01:06:51;6.07;;;1.48;;
47259;SDS011;32999;52.412;4.890;2022-10-16T01:12:05;7.97;;;1.30;;
47259;SDS011;32999;52.412;4.890;2022-10-16T01:17:13;4.72;;;1.95;;
47259;SDS011;32999;52.412;4.890;2022-10-16T01:22:19;5.90;;;0.90;;
47259;SDS011;32999;52.412;4.890;2022-10-16T01:27:31;4.10;;;1.00;;
47259;SDS011;32999;52.412;4.890;2022-10-16T01:32:38;4.15;;;1.10;;
47259;SDS011;32999;52.412;4.890;2022-10-16T01:37:44;2.30;;;0.90;;
47259;SDS011;32999;52.412;4.890;2022-10-16T01:42:52;3.42;;;1.17;;
47259;SDS011;32999;52.412;4.890;2022-10-16T01:47:57;3.42;;;1.23;;
47259;SDS011;32999;52.412;4.890;2022-10-16T01:53:04;3.33;;;0.98;;
47259;SDS011;32999;52.412;4.890;2022-10-16T01:58:10;10.43;;;1.27;;
47259;SDS011;32999;52.412;4.890;2022-10-16T02:03:14;3.30;;;0.80;;
47259;SDS011;32999;52.412;4.890;2022-10-16T02:08:20;2.97;;;0.77;;
47259;SDS011;32999;52.412;4.890;2022-10-16T02:13:26;2.13;;;1.07;;
47259;SDS011;32999;52.412;4.890;2022-10-16T02:18:32;7.22;;;0.80;;
47259;SDS011;32999;52.412;4.890;2022-10-16T02:23:35;4.50;;;1.13;;
47259;SDS011;32999;52.412;4.890;2022-10-16T02:28:46;3.20;;;1.27;;
47259;SDS011;32999;52.412;4.890;2022-10-16T02:33:52;2.88;;;0.98;;
47259;SDS011;32999;52.412;4.890;2022-10-16T02:38:58;2.65;;;1.27;;
47259;SDS011;32999;52.412;4.890;2022-10-16T02:44:05;2.25;;;0.90;;
47259;SDS011;32999;52.412;4.890;2022-10-16T02:49:07;2.85;;;1.15;;
47259;SDS011;32999;52.412;4.890;2022-10-16T02:54:08;3.83;;;1.40;;
47259;SDS011;32999;52.412;4.890;2022-10-16T02:59:12;3.88;;;1.20;;
47259;SDS011;32999;52.412;4.890;2022-10-16T03:04:14;4.25;;;1.23;;
47259;SDS011;32999;52.412;4.890;2022-10-16T03:09:15;4.68;;;1.63;;
47259;SDS011;32999;52.412;4.890;2022-10-16T03:14:19;5.55;;;1.85;;
47259;SDS011;32999;52.412;4.890;2022-10-16T03:19:21;3.47;;;1.50;;
47259;SDS011;32999;52.412;4.890;2022-10-16T03:24:23;1.90;;;1.23;;
47259;SDS011;32999;52.412;4.890;2022-10-16T03:29:26;2.45;;;1.50;;
47259;SDS011;32999;52.412;4.890;2022-10-16T03:39:31;4.18;;;1.33;;
47259;SDS011;32999;52.412;4.890;2022-10-16T03:44:34;2.45;;;1.70;;
47259;SDS011;32999;52.412;4.890;2022-10-16T03:49:35;7.70;;;2.10;;
47259;SDS011;32999;52.412;4.890;2022-10-16T03:54:37;3.70;;;1.95;;
47259;SDS011;32999;52.412;4.890;2022-10-16T03:59:40;4.38;;;2.00;;
47259;SDS011;32999;52.412;4.890;2022-10-16T04:04:42;3.10;;;1.55;;
47259;SDS011;32999;52.412;4.890;2022-10-16T04:09:45;6.05;;;1.88;;
47259;SDS011;32999;52.412;4.890;2022-10-16T04:14:48;6.32;;;2.05;;
47259;SDS011;32999;52.412;4.890;2022-10-16T04:19:50;7.38;;;2.13;;
47259;SDS011;32999;52.412;4.890;2022-10-16T04:24:52;2.17;;;1.65;;
47259;SDS011;32999;52.412;4.890;2022-10-16T04:29:55;4.75;;;1.65;;
47259;SDS011;32999;52.412;4.890;2022-10-16T04:34:57;4.82;;;1.80;;
47259;SDS011;32999;52.412;4.890;2022-10-16T04:39:58;3.75;;;1.60;;
47259;SDS011;32999;52.412;4.890;2022-10-16T04:45:03;2.92;;;1.52;;
47259;SDS011;32999;52.412;4.890;2022-10-16T04:50:08;3.90;;;1.60;;
47259;SDS011;32999;52.412;4.890;2022-10-16T04:55:15;5.30;;;1.63;;
47259;SDS011;32999;52.412;4.890;2022-10-16T05:05:23;5.57;;;1.50;;
47259;SDS011;32999;52.412;4.890;2022-10-16T05:10:24;10.60;;;2.17;;
47259;SDS011;32999;52.412;4.890;2022-10-16T05:15:27;5.93;;;1.52;;
47259;SDS011;32999;52.412;4.890;2022-10-16T05:20:29;5.85;;;2.20;;
47259;SDS011;32999;52.412;4.890;2022-10-16T05:25:31;5.18;;;1.33;;
47259;SDS011;32999;52.412;4.890;2022-10-16T05:30:34;3.25;;;1.52;;
47259;SDS011;32999;52.412;4.890;2022-10-16T05:35:38;5.72;;;1.95;;
47259;SDS011;32999;52.412;4.890;2022-10-16T05:40:40;6.55;;;2.17;;
47259;SDS011;32999;52.412;4.890;2022-10-16T05:45:43;7.00;;;2.17;;
47259;SDS011;32999;52.412;4.890;2022-10-16T05:50:45;6.60;;;2.17;;
47259;SDS011;32999;52.412;4.890;2022-10-16T05:55:51;8.57;;;2.40;;
47259;SDS011;32999;52.412;4.890;2022-10-16T06:00:55;7.90;;;2.20;;
47259;SDS011;32999;52.412;4.890;2022-10-16T06:05:57;8.38;;;1.98;;
47259;SDS011;32999;52.412;4.890;2022-10-16T06:11:02;11.57;;;2.13;;
47259;SDS011;32999;52.412;4.890;2022-10-16T06:16:08;8.55;;;1.90;;
47259;SDS011;32999;52.412;4.890;2022-10-16T06:21:11;6.70;;;2.17;;
47259;SDS011;32999;52.412;4.890;2022-10-16T06:26:15;3.58;;;1.60;;
47259;SDS011;32999;52.412;4.890;2022-10-16T06:31:20;8.57;;;1.70;;
47259;SDS011;32999;52.412;4.890;2022-10-16T06:36:21;6.32;;;1.65;;
47259;SDS011;32999;52.412;4.890;2022-10-16T06:41:23;9.05;;;2.22;;
47259;SDS011;32999;52.412;4.890;2022-10-16T06:46:26;5.95;;;2.50;;
47259;SDS011;32999;52.412;4.890;2022-10-16T06:51:28;8.43;;;2.10;;
47259;SDS011;32999;52.412;4.890;2022-10-16T06:56:35;11.20;;;2.58;;
47259;SDS011;32999;52.412;4.890;2022-10-16T07:01:39;7.95;;;2.42;;
47259;SDS011;32999;52.412;4.890;2022-10-16T07:06:40;7.47;;;2.22;;
47259;SDS011;32999;52.412;4.890;2022-10-16T07:11:42;8.40;;;3.15;;
47259;SDS011;32999;52.412;4.890;2022-10-16T07:16:45;11.35;;;2.38;;
47259;SDS011;32999;52.412;4.890;2022-10-16T07:21:47;8.70;;;1.67;;
47259;SDS011;32999;52.412;4.890;2022-10-16T07:26:49;7.85;;;1.80;;
47259;SDS011;32999;52.412;4.890;2022-10-16T07:31:52;8.25;;;1.67;;
47259;SDS011;32999;52.412;4.890;2022-10-16T07:36:54;5.25;;;1.25;;
47259;SDS011;32999;52.412;4.890;2022-10-16T07:41:55;7.43;;;1.67;;
47259;SDS011;32999;52.412;4.890;2022-10-16T07:46:59;6.75;;;1.50;;
47259;SDS011;32999;52.412;4.890;2022-10-16T07:52:00;12.30;;;3.80;;
47259;SDS011;32999;52.412;4.890;2022-10-16T07:57:02;6.55;;;1.58;;
47259;SDS011;32999;52.412;4.890;2022-10-16T08:02:06;8.55;;;1.40;;
47259;SDS011;32999;52.412;4.890;2022-10-16T08:07:08;10.80;;;1.70;;
47259;SDS011;32999;52.412;4.890;2022-10-16T08:12:10;8.88;;;1.58;;
47259;SDS011;32999;52.412;4.890;2022-10-16T08:17:14;8.20;;;1.77;;
47259;SDS011;32999;52.412;4.890;2022-10-16T08:22:16;10.23;;;2.47;;
47259;SDS011;32999;52.412;4.890;2022-10-16T08:27:18;8.60;;;2.00;;
47259;SDS011;32999;52.412;4.890;2022-10-16T08:32:21;8.82;;;1.70;;
47259;SDS011;32999;52.412;4.890;2022-10-16T08:37:23;7.45;;;2.08;;
47259;SDS011;32999;52.412;4.890;2022-10-16T08:42:33;7.60;;;1.85;;
47259;SDS011;32999;52.412;4.890;2022-10-16T08:47:51;12.45;;;2.58;;
47259;SDS011;32999;52.412;4.890;2022-10-16T08:52:57;9.00;;;2.20;;
47259;SDS011;32999;52.412;4.890;2022-10-16T08:58:00;8.30;;;1.60;;
47259;SDS011;32999;52.412;4.890;2022-10-16T09:03:06;12.38;;;2.22;;
47259;SDS011;32999;52.412;4.890;2022-10-16T09:08:19;11.45;;;2.08;;
47259;SDS011;32999;52.412;4.890;2022-10-16T09:13:29;12.63;;;2.00;;
47259;SDS011;32999;52.412;4.890;2022-10-16T09:23:53;13.32;;;5.50;;
47259;SDS011;32999;52.412;4.890;2022-10-16T09:28:56;12.40;;;2.67;;
47259;SDS011;32999;52.412;4.890;2022-10-16T09:33:59;15.00;;;3.10;;
47259;SDS011;32999;52.412;4.890;2022-10-16T09:39:10;16.27;;;2.70;;
47259;SDS011;32999;52.412;4.890;2022-10-16T09:44:17;19.98;;;3.33;;
47259;SDS011;32999;52.412;4.890;2022-10-16T09:49:23;12.68;;;2.70;;
47259;SDS011;32999;52.412;4.890;2022-10-16T09:54:28;25.70;;;3.45;;
47259;SDS011;32999;52.412;4.890;2022-10-16T09:59:30;22.90;;;3.67;;
47259;SDS011;32999;52.412;4.890;2022-10-16T10:04:37;25.40;;;3.92;;
47259;SDS011;32999;52.412;4.890;2022-10-16T10:09:43;18.40;;;2.88;;
47259;SDS011;32999;52.412;4.890;2022-10-16T10:14:46;14.48;;;3.00;;
47259;SDS011;32999;52.412;4.890;2022-10-16T10:19:50;11.70;;;2.60;;
47259;SDS011;32999;52.412;4.890;2022-10-16T10:25:07;15.07;;;3.30;;
47259;SDS011;32999;52.412;4.890;2022-10-16T10:30:18;19.45;;;3.30;;
47259;SDS011;32999;52.412;4.890;2022-10-16T10:35:25;19.80;;;3.15;;
47259;SDS011;32999;52.412;4.890;2022-10-16T10:40:38;13.93;;;3.17;;
47259;SDS011;32999;52.412;4.890;2022-10-16T10:45:46;18.37;;;2.83;;
47259;SDS011;32999;52.412;4.890;2022-10-16T10:50:54;13.50;;;2.35;;
47259;SDS011;32999;52.412;4.890;2022-10-16T10:56:03;13.07;;;2.38;;
47259;SDS011;32999;52.412;4.890;2022-10-16T11:01:11;23.05;;;3.00;;
47259;SDS011;32999;52.412;4.890;2022-10-16T11:06:15;16.15;;;2.80;;
47259;SDS011;32999;52.412;4.890;2022-10-16T11:11:23;13.93;;;2.63;;
47259;SDS011;32999;52.412;4.890;2022-10-16T11:16:32;13.05;;;2.83;;
47259;SDS011;32999;52.412;4.890;2022-10-16T11:21:39;23.08;;;3.88;;
47259;SDS011;32999;52.412;4.890;2022-10-16T11:26:50;9.82;;;2.80;;
47259;SDS011;32999;52.412;4.890;2022-10-16T11:31:57;12.18;;;3.08;;
47259;SDS011;32999;52.412;4.890;2022-10-16T11:37:08;19.92;;;3.53;;
47259;SDS011;32999;52.412;4.890;2022-10-16T11:42:18;18.77;;;3.03;;
47259;SDS011;32999;52.412;4.890;2022-10-16T11:47:26;14.73;;;2.78;;
47259;SDS011;32999;52.412;4.890;2022-10-16T11:52:35;17.13;;;3.05;;
47259;SDS011;32999;52.412;4.890;2022-10-16T11:57:45;15.90;;;2.85;;
47259;SDS011;32999;52.412;4.890;2022-10-16T12:02:52;12.63;;;2.80;;
47259;SDS011;32999;52.412;4.890;2022-10-16T12:08:05;12.18;;;2.40;;
47259;SDS011;32999;52.412;4.890;2022-10-16T12:13:32;12.95;;;2.85;;
47259;SDS011;32999;52.412;4.890;2022-10-16T12:18:36;18.02;;;2.80;;
47259;SDS011;32999;52.412;4.890;2022-10-16T12:23:46;12.90;;;2.35;;
47259;SDS011;32999;52.412;4.890;2022-10-16T12:28:52;14.57;;;5.57;;
47259;SDS011;32999;52.412;4.890;2022-10-16T12:33:57;11.18;;;1.98;;
47259;SDS011;32999;52.412;4.890;2022-10-16T12:39:02;13.18;;;2.50;;
47259;SDS011;32999;52.412;4.890;2022-10-16T12:49:30;10.30;;;1.92;;
47259;SDS011;32999;52.412;4.890;2022-10-16T12:54:35;14.38;;;3.03;;
47259;SDS011;32999;52.412;4.890;2022-10-16T12:59:40;10.40;;;1.73;;
47259;SDS011;32999;52.412;4.890;2022-10-16T13:04:58;7.13;;;1.88;;
47259;SDS011;32999;52.412;4.890;2022-10-16T13:10:22;9.77;;;1.92;;
47259;SDS011;32999;52.412;4.890;2022-10-16T13:15:34;15.75;;;2.60;;
47259;SDS011;32999;52.412;4.890;2022-10-16T13:20:53;6.57;;;1.38;;
47259;SDS011;32999;52.412;4.890;2022-10-16T13:26:09;7.95;;;1.50;;
47259;SDS011;32999;52.412;4.890;2022-10-16T13:31:22;11.95;;;2.30;;
47259;SDS011;32999;52.412;4.890;2022-10-16T13:36:26;8.35;;;2.10;;
47259;SDS011;32999;52.412;4.890;2022-10-16T13:41:29;9.00;;;2.00;;
47259;SDS011;32999;52.412;4.890;2022-10-16T13:46:32;9.63;;;1.77;;
47259;SDS011;32999;52.412;4.890;2022-10-16T13:51:34;9.73;;;2.08;;
47259;SDS011;32999;52.412;4.890;2022-10-16T13:56:36;11.63;;;2.30;;
47259;SDS011;32999;52.412;4.890;2022-10-16T14:01:42;8.98;;;2.03;;
47259;SDS011;32999;52.412;4.890;2022-10-16T14:06:45;7.53;;;1.73;;
47259;SDS011;32999;52.412;4.890;2022-10-16T14:11:50;16.38;;;2.80;;
47259;SDS011;32999;52.412;4.890;2022-10-16T14:16:55;11.18;;;2.30;;
47259;SDS011;32999;52.412;4.890;2022-10-16T14:21:57;9.75;;;2.88;;
47259;SDS011;32999;52.412;4.890;2022-10-16T14:27:01;13.32;;;2.35;;
47259;SDS011;32999;52.412;4.890;2022-10-16T14:32:05;15.23;;;2.65;;
47259;SDS011;32999;52.412;4.890;2022-10-16T14:37:13;10.82;;;1.58;;
47259;SDS011;32999;52.412;4.890;2022-10-16T14:42:22;15.15;;;2.58;;
47259;SDS011;32999;52.412;4.890;2022-10-16T14:47:27;10.70;;;2.35;;
47259;SDS011;32999;52.412;4.890;2022-10-16T14:52:29;11.00;;;1.92;;
47259;SDS011;32999;52.412;4.890;2022-10-16T14:57:31;10.73;;;2.40;;
47259;SDS011;32999;52.412;4.890;2022-10-16T15:02:37;8.27;;;1.92;;
47259;SDS011;32999;52.412;4.890;2022-10-16T15:07:39;9.00;;;1.70;;
47259;SDS011;32999;52.412;4.890;2022-10-16T15:12:41;15.82;;;4.20;;
47259;SDS011;32999;52.412;4.890;2022-10-16T15:17:44;11.70;;;2.22;;
47259;SDS011;32999;52.412;4.890;2022-10-16T15:22:46;15.15;;;2.70;;
47259;SDS011;32999;52.412;4.890;2022-10-16T15:27:48;10.15;;;2.50;;
47259;SDS011;32999;52.412;4.890;2022-10-16T15:32:51;12.27;;;2.30;;
47259;SDS011;32999;52.412;4.890;2022-10-16T15:37:53;9.32;;;2.28;;
47259;SDS011;32999;52.412;4.890;2022-10-16T15:42:54;11.45;;;2.33;;
47259;SDS011;32999;52.412;4.890;2022-10-16T15:47:57;13.30;;;2.70;;
47259;SDS011;32999;52.412;4.890;2022-10-16T15:52:59;11.68;;;2.13;;
47259;SDS011;32999;52.412;4.890;2022-10-16T15:58:01;11.02;;;2.10;;
47259;SDS011;32999;52.412;4.890;2022-10-16T16:03:04;17.23;;;6.75;;
47259;SDS011;32999;52.412;4.890;2022-10-16T16:08:06;13.05;;;2.95;;
47259;SDS011;32999;52.412;4.890;2022-10-16T16:13:08;12.93;;;3.17;;
47259;SDS011;32999;52.412;4.890;2022-10-16T16:18:11;13.27;;;3.50;;
47259;SDS011;32999;52.412;4.890;2022-10-16T16:23:13;18.45;;;3.10;;
47259;SDS011;32999;52.412;4.890;2022-10-16T16:28:15;14.40;;;3.63;;
47259;SDS011;32999;52.412;4.890;2022-10-16T16:33:18;15.57;;;4.00;;
47259;SDS011;32999;52.412;4.890;2022-10-16T16:38:20;12.18;;;3.38;;
47259;SDS011;32999;52.412;4.890;2022-10-16T16:43:22;14.23;;;3.97;;
47259;SDS011;32999;52.412;4.890;2022-10-16T16:48:27;16.83;;;4.43;;
47259;SDS011;32999;52.412;4.890;2022-10-16T16:53:28;26.98;;;11.80;;
47259;SDS011;32999;52.412;4.890;2022-10-16T16:58:30;19.27;;;5.03;;
47259;SDS011;32999;52.412;4.890;2022-10-16T17:03:35;16.43;;;3.83;;
47259;SDS011;32999;52.412;4.890;2022-10-16T17:08:37;73.38;;;11.93;;
47259;SDS011;32999;52.412;4.890;2022-10-16T17:13:39;30.77;;;4.53;;
47259;SDS011;32999;52.412;4.890;2022-10-16T17:18:42;18.30;;;4.85;;
47259;SDS011;32999;52.412;4.890;2022-10-16T17:23:44;19.38;;;4.30;;
47259;SDS011;32999;52.412;4.890;2022-10-16T17:28:49;17.40;;;4.18;;
47259;SDS011;32999;52.412;4.890;2022-10-16T17:33:53;19.77;;;4.13;;
47259;SDS011;32999;52.412;4.890;2022-10-16T17:38:56;17.80;;;4.03;;
47259;SDS011;32999;52.412;4.890;2022-10-16T17:43:59;15.03;;;5.20;;
47259;SDS011;32999;52.412;4.890;2022-10-16T17:49:02;17.77;;;5.25;;
47259;SDS011;32999;52.412;4.890;2022-10-16T17:54:05;22.65;;;9.48;;
47259;SDS011;32999;52.412;4.890;2022-10-16T17:59:07;19.75;;;6.32;;
47259;SDS011;32999;52.412;4.890;2022-10-16T18:04:13;17.00;;;4.70;;
47259;SDS011;32999;52.412;4.890;2022-10-16T18:09:17;21.88;;;5.53;;
47259;SDS011;32999;52.412;4.890;2022-10-16T18:14:19;14.53;;;4.77;;
47259;SDS011;32999;52.412;4.890;2022-10-16T18:19:23;19.90;;;4.72;;
47259;SDS011;32999;52.412;4.890;2022-10-16T18:29:27;15.30;;;5.60;;
47259;SDS011;32999;52.412;4.890;2022-10-16T18:34:30;20.58;;;5.53;;
47259;SDS011;32999;52.412;4.890;2022-10-16T18:39:36;17.88;;;5.28;;
47259;SDS011;32999;52.412;4.890;2022-10-16T18:44:38;20.98;;;4.47;;
47259;SDS011;32999;52.412;4.890;2022-10-16T18:49:41;13.48;;;4.28;;
47259;SDS011;32999;52.412;4.890;2022-10-16T18:54:43;14.13;;;4.38;;
47259;SDS011;32999;52.412;4.890;2022-10-16T18:59:44;21.85;;;7.97;;
47259;SDS011;32999;52.412;4.890;2022-10-16T19:04:48;14.23;;;4.72;;
47259;SDS011;32999;52.412;4.890;2022-10-16T19:09:49;12.93;;;4.03;;
47259;SDS011;32999;52.412;4.890;2022-10-16T19:14:51;10.52;;;3.97;;
47259;SDS011;32999;52.412;4.890;2022-10-16T19:19:54;11.63;;;4.03;;
47259;SDS011;32999;52.412;4.890;2022-10-16T19:24:56;17.85;;;4.20;;
47259;SDS011;32999;52.412;4.890;2022-10-16T19:29:58;15.98;;;4.38;;
47259;SDS011;32999;52.412;4.890;2022-10-16T19:35:01;15.90;;;4.43;;
47259;SDS011;32999;52.412;4.890;2022-10-16T19:40:03;15.88;;;3.42;;
47259;SDS011;32999;52.412;4.890;2022-10-16T19:45:05;16.02;;;3.63;;
47259;SDS011;32999;52.412;4.890;2022-10-16T19:50:09;16.00;;;3.08;;
47259;SDS011;32999;52.412;4.890;2022-10-16T19:55:11;13.93;;;3.37;;
47259;SDS011;32999;52.412;4.890;2022-10-16T20:00:13;13.82;;;3.50;;
47259;SDS011;32999;52.412;4.890;2022-10-16T20:05:18;18.02;;;3.65;;
47259;SDS011;32999;52.412;4.890;2022-10-16T20:10:19;18.10;;;3.45;;
47259;SDS011;32999;52.412;4.890;2022-10-16T20:15:21;13.18;;;3.10;;
47259;SDS011;32999;52.412;4.890;2022-10-16T20:20:26;14.10;;;3.65;;
47259;SDS011;32999;52.412;4.890;2022-10-16T20:25:28;15.35;;;2.75;;
47259;SDS011;32999;52.412;4.890;2022-10-16T20:30:31;16.83;;;2.80;;
47259;SDS011;32999;52.412;4.890;2022-10-16T20:35:36;17.13;;;3.00;;
47259;SDS011;32999;52.412;4.890;2022-10-16T20:40:39;17.08;;;3.08;;
47259;SDS011;32999;52.412;4.890;2022-10-16T20:45:43;11.65;;;2.45;;
47259;SDS011;32999;52.412;4.890;2022-10-16T20:50:46;16.48;;;2.45;;
47259;SDS011;32999;52.412;4.890;2022-10-16T20:55:48;16.48;;;3.50;;
47259;SDS011;32999;52.412;4.890;2022-10-16T21:00:50;13.52;;;2.90;;
47259;SDS011;32999;52.412;4.890;2022-10-16T21:05:53;18.50;;;2.75;;
47259;SDS011;32999;52.412;4.890;2022-10-16T21:10:55;15.27;;;3.38;;
47259;SDS011;32999;52.412;4.890;2022-10-16T21:15:56;13.70;;;3.17;;
47259;SDS011;32999;52.412;4.890;2022-10-16T21:20:59;13.43;;;3.63;;
47259;SDS011;32999;52.412;4.890;2022-10-16T21:26:01;13.68;;;3.72;;
47259;SDS011;32999;52.412;4.890;2022-10-16T21:31:09;15.52;;;4.75;;
47259;SDS011;32999;52.412;4.890;2022-10-16T21:36:14;13.63;;;3.33;;
47259;SDS011;32999;52.412;4.890;2022-10-16T21:41:18;13.75;;;4.32;;
47259;SDS011;32999;52.412;4.890;2022-10-16T21:46:22;14.57;;;3.63;;
47259;SDS011;32999;52.412;4.890;2022-10-16T21:56:30;15.50;;;3.78;;
47259;SDS011;32999;52.412;4.890;2022-10-16T22:01:32;12.30;;;3.80;;
47259;SDS011;32999;52.412;4.890;2022-10-16T22:06:38;13.73;;;3.63;;
47259;SDS011;32999;52.412;4.890;2022-10-16T22:11:40;9.27;;;3.75;;
47259;SDS011;32999;52.412;4.890;2022-10-16T22:16:44;20.77;;;4.82;;
47259;SDS011;32999;52.412;4.890;2022-10-16T22:21:48;15.38;;;4.25;;
47259;SDS011;32999;52.412;4.890;2022-10-16T22:26:50;17.88;;;7.22;;
47259;SDS011;32999;52.412;4.890;2022-10-16T22:31:52;10.70;;;4.40;;
47259;SDS011;32999;52.412;4.890;2022-10-16T22:36:55;14.13;;;4.90;;
47259;SDS011;32999;52.412;4.890;2022-10-16T22:41:57;13.30;;;4.72;;
47259;SDS011;32999;52.412;4.890;2022-10-16T22:46:58;15.85;;;5.78;;
47259;SDS011;32999;52.412;4.890;2022-10-16T22:52:02;16.35;;;4.97;;
47259;SDS011;32999;52.412;4.890;2022-10-16T22:57:04;9.68;;;4.72;;
47259;SDS011;32999;52.412;4.890;2022-10-16T23:02:05;16.98;;;4.70;;
47259;SDS011;32999;52.412;4.890;2022-10-16T23:07:08;18.88;;;5.78;;
47259;SDS011;32999;52.412;4.890;2022-10-16T23:12:10;12.10;;;5.35;;
47259;SDS011;32999;52.412;4.890;2022-10-16T23:17:12;14.23;;;5.45;;
47259;SDS011;32999;52.412;4.890;2022-10-16T23:22:15;16.77;;;5.13;;
47259;SDS011;32999;52.412;4.890;2022-10-16T23:27:16;11.43;;;5.43;;
47259;SDS011;32999;52.412;4.890;2022-10-16T23:32:18;16.48;;;5.68;;
47259;SDS011;32999;52.412;4.890;2022-10-16T23:37:21;9.10;;;5.63;;
47259;SDS011;32999;52.412;4.890;2022-10-16T23:42:22;16.02;;;5.80;;
47259;SDS011;32999;52.412;4.890;2022-10-16T23:47:24;14.00;;;5.43;;
47259;SDS011;32999;52.412;4.890;2022-10-16T23:52:28;13.25;;;6.07;;
47259;SDS011;32999;52.412;4.890;2022-10-16T23:57:29;10.27;;;6.07;;
